Little York, Ohio
Current Conditions -  °F | °C
As of 6:53 PM on Sunday 23 Nov 2014 (Local Time) from KMNN Reporting Station
Light Rain Light Rain  
Wind Chill: 53°   Ceiling: 6000
Heat Index: 53°   Visibility: 6mi
Dew Point: 45°   Wind: 17mph
Humidity: 74%   Direction: 150°SSE
Pressure: 29.57"   Gusts: 25mph
Location:  40.8054°N, 83.1316°W
Report Text: KMNN 232353Z AUTO 15015G22KT 6SM -RA BKN060 BKN080 OVC100 12/07 A2957 RMK AO2 PK WND 15026/2322 RAB09 SLP016 P0001 60001 T01170072 10161 20117 56043 TSNO
Loading
Personal Weather Stations






























Interactive Weather Map New forecast layout! Learn more

10-Day Weather Forecast

Advertisements
Track Severe Weather on mobile